createdAt,value
2023-05-05T00:03:09.041Z,1006.454
2023-05-05T00:23:07.826Z,1006.352
2023-05-05T00:43:07.597Z,1006.036
2023-05-05T01:03:08.891Z,1005.883
2023-05-05T01:23:07.882Z,1005.711
2023-05-05T01:43:07.829Z,1005.549
2023-05-05T02:03:09.298Z,1005.516
2023-05-05T02:23:07.161Z,1005.439
2023-05-05T02:43:08.193Z,1005.326
2023-05-05T03:03:09.200Z,1005.317
2023-05-05T03:23:08.130Z,1005.341
2023-05-05T03:43:08.024Z,1005.444
2023-05-05T04:03:09.422Z,1005.529
2023-05-05T04:23:07.348Z,1005.571
2023-05-05T04:43:07.433Z,1005.711
2023-05-05T05:03:08.474Z,1005.887
2023-05-05T05:23:07.445Z,1005.994
2023-05-05T05:43:07.387Z,1006.075
2023-05-05T06:03:08.989Z,1006.281
2023-05-05T06:23:07.956Z,1006.377
2023-05-05T06:43:07.819Z,1006.661
2023-05-05T07:03:08.968Z,1006.757
2023-05-05T07:23:07.942Z,1006.911
2023-05-05T07:43:08.213Z,1007.151
2023-05-05T08:03:13.046Z,1007.229
2023-05-05T08:23:07.916Z,1007.274
2023-05-05T08:43:07.894Z,1007.336
2023-05-05T09:03:09.106Z,1007.476
2023-05-05T09:23:08.026Z,1007.479
2023-05-05T09:43:07.898Z,1007.406
2023-05-05T10:03:09.107Z,1007.299
2023-05-05T10:23:08.033Z,1007.286
2023-05-05T10:43:07.993Z,1007.167
2023-05-05T11:03:09.229Z,1006.959
2023-05-05T11:23:08.577Z,1006.868
2023-05-05T11:43:07.641Z,1006.587
2023-05-05T12:03:09.069Z,1006.379
2023-05-05T12:23:07.993Z,1006.315
2023-05-05T12:43:07.841Z,1006.112
2023-05-05T13:03:09.006Z,1005.955
2023-05-05T13:23:07.964Z,1005.653
2023-05-05T13:43:08.043Z,1005.675
2023-05-05T14:03:09.054Z,1005.532
2023-05-05T14:23:07.958Z,1006.577
2023-05-05T14:43:08.018Z,1006.974
2023-05-05T15:03:09.356Z,1006.839
2023-05-05T15:23:07.222Z,1006.673
2023-05-05T15:43:07.204Z,1006.614
2023-05-05T16:03:09.529Z,1006.882
2023-05-05T16:23:07.390Z,1007.238
2023-05-05T16:43:07.505Z,1007.086
2023-05-05T17:03:08.515Z,1007.336
2023-05-05T17:23:07.585Z,1007.368
2023-05-05T17:43:07.673Z,1007.46
2023-05-05T18:03:09.190Z,1007.355
2023-05-05T18:23:07.187Z,1007.426
2023-05-05T18:43:07.183Z,1007.377
2023-05-05T19:03:09.316Z,1007.392
2023-05-05T19:23:07.263Z,1007.314
2023-05-05T19:43:07.394Z,1007.22
2023-05-05T20:03:08.760Z,1007.227
2023-05-05T20:23:07.730Z,1007.364
2023-05-05T20:43:07.901Z,1007.403
2023-05-05T21:03:09.299Z,1007.508
2023-05-05T21:23:07.377Z,1007.471
2023-05-05T21:43:07.938Z,1007.49
2023-05-05T22:03:08.494Z,1007.552
2023-05-05T22:23:07.357Z,1007.632
2023-05-05T22:43:08.120Z,1007.701
2023-05-05T23:03:08.948Z,1007.503
2023-05-05T23:23:07.646Z,1007.533
2023-05-05T23:43:07.475Z,1007.651
